createdAt,value
2019-03-25T00:01:47.765Z,50.04
2019-03-25T00:04:18.001Z,50.37
2019-03-25T00:06:48.807Z,49.50
2019-03-25T00:09:17.883Z,49.50
2019-03-25T00:11:48.035Z,49.13
2019-03-25T00:14:18.732Z,49.29
2019-03-25T00:16:47.878Z,49.42
2019-03-25T00:19:17.990Z,48.80
2019-03-25T00:21:48.330Z,47.85
2019-03-25T00:24:18.629Z,47.53
2019-03-25T00:26:49.132Z,47.86
2019-03-25T00:29:19.493Z,47.86
2019-03-25T00:31:51.058Z,47.10
2019-03-25T00:34:21.982Z,47.10
2019-03-25T00:36:52.324Z,47.81
2019-03-25T00:39:22.763Z,46.93
2019-03-25T00:41:52.157Z,47.33
2019-03-25T00:44:22.511Z,45.79
2019-03-25T00:46:52.905Z,45.25
2019-03-25T00:49:23.110Z,45.25
2019-03-25T00:51:53.614Z,44.43
2019-03-25T00:54:24.042Z,44.54
2019-03-25T00:56:54.769Z,44.54
2019-03-25T00:59:24.945Z,44.43
2019-03-25T01:01:54.993Z,44.45
2019-03-25T01:04:25.563Z,43.93
2019-03-25T01:06:55.056Z,43.53
2019-03-25T01:09:25.965Z,43.26
2019-03-25T01:11:56.588Z,44.38
2019-03-25T01:14:27.040Z,43.68
2019-03-25T01:16:57.594Z,44.01
2019-03-25T01:19:28.265Z,44.12
2019-03-25T01:21:59.045Z,44.12
2019-03-25T01:24:29.713Z,44.99
2019-03-25T01:26:59.283Z,42.28
2019-03-25T01:29:29.926Z,42.28
2019-03-25T01:32:00.031Z,42.23
2019-03-25T01:34:30.875Z,41.44
2019-03-25T01:37:01.010Z,40.76
2019-03-25T01:39:31.055Z,40.77
2019-03-25T01:42:01.937Z,40.66
2019-03-25T01:44:32.489Z,41.00
2019-03-25T01:47:03.118Z,41.10
2019-03-25T01:49:33.945Z,40.90
2019-03-25T01:52:05.917Z,40.45
2019-03-25T01:54:36.022Z,39.18
2019-03-25T01:57:06.922Z,39.18
2019-03-25T01:59:37.445Z,39.22
2019-03-25T02:02:08.003Z,39.41
2019-03-25T02:04:38.534Z,39.34
2019-03-25T02:07:08.933Z,39.43
2019-03-25T02:09:39.314Z,39.39
2019-03-25T02:12:09.991Z,39.34
2019-03-25T02:14:40.588Z,38.00
2019-03-25T02:17:11.319Z,38.65
2019-03-25T02:19:41.874Z,38.65
2019-03-25T02:22:12.002Z,38.59
2019-03-25T02:24:42.110Z,38.57
2019-03-25T02:27:12.559Z,38.56
2019-03-25T02:29:42.886Z,38.75
2019-03-25T02:32:13.417Z,38.78
2019-03-25T02:34:44.595Z,39.05
2019-03-25T02:37:14.849Z,38.47
2019-03-25T02:39:44.997Z,38.47
2019-03-25T02:42:14.939Z,38.31
2019-03-25T02:44:44.969Z,38.25
2019-03-25T02:47:14.972Z,38.97
2019-03-25T02:49:45.300Z,38.12
2019-03-25T02:52:15.722Z,38.12
2019-03-25T02:54:44.862Z,38.66
2019-03-25T02:57:14.965Z,38.25
2019-03-25T02:59:44.941Z,38.01
2019-03-25T03:02:15.100Z,37.93
2019-03-25T03:04:45.696Z,38.51
2019-03-25T03:07:14.932Z,38.54
2019-03-25T03:09:44.990Z,38.73
2019-03-25T03:12:15.755Z,39.36
2019-03-25T03:14:46.038Z,40.07
2019-03-25T03:17:16.916Z,40.70
2019-03-25T03:19:47.159Z,40.48
2019-03-25T03:22:17.538Z,41.27
2019-03-25T03:24:48.032Z,42.18
2019-03-25T03:27:18.566Z,42.85
2019-03-25T03:29:48.928Z,42.96
2019-03-25T03:32:19.170Z,43.78
2019-03-25T03:34:49.761Z,42.97
2019-03-25T03:37:18.967Z,42.91
2019-03-25T03:39:49.076Z,43.27
2019-03-25T03:42:19.645Z,42.72
2019-03-25T03:44:49.160Z,42.58
2019-03-25T03:47:19.546Z,43.80
2019-03-25T03:49:49.694Z,43.54
2019-03-25T03:52:18.978Z,43.92
2019-03-25T03:54:49.449Z,44.12
2019-03-25T03:57:20.312Z,44.28
2019-03-25T03:59:51.759Z,44.00
2019-03-25T04:02:20.851Z,43.57
2019-03-25T04:04:53.164Z,44.67
2019-03-25T04:07:24.569Z,44.46
2019-03-25T04:09:54.860Z,43.94
2019-03-25T04:12:24.937Z,43.85
2019-03-25T04:14:58.242Z,42.91
2019-03-25T04:17:28.576Z,42.65
2019-03-25T04:19:58.903Z,42.22
2019-03-25T04:22:28.998Z,42.22
2019-03-25T04:24:58.987Z,41.86
2019-03-25T04:27:29.007Z,42.20
2019-03-25T04:29:59.020Z,42.58
2019-03-25T04:32:28.946Z,42.86
2019-03-25T04:34:59.070Z,42.53
2019-03-25T04:37:30.564Z,43.64
2019-03-25T04:40:00.853Z,44.38
2019-03-25T04:42:32.388Z,44.22
2019-03-25T04:45:02.721Z,44.15
2019-03-25T04:47:33.142Z,45.48
2019-03-25T04:50:03.722Z,46.18
2019-03-25T04:52:32.849Z,46.35
2019-03-25T04:55:02.869Z,46.63
2019-03-25T04:57:33.020Z,46.46
2019-03-25T05:00:03.969Z,45.73
2019-03-25T05:02:34.506Z,46.62
2019-03-25T05:05:05.418Z,47.16
2019-03-25T05:07:35.700Z,47.16
2019-03-25T05:10:06.081Z,47.34
2019-03-25T05:12:36.913Z,48.19
2019-03-25T05:15:08.528Z,48.55
2019-03-25T05:17:39.292Z,48.96
2019-03-25T05:20:09.875Z,48.40
2019-03-25T05:22:40.012Z,49.00
2019-03-25T05:25:10.117Z,49.35
2019-03-25T05:27:40.545Z,49.51
2019-03-25T05:30:12.843Z,49.21
2019-03-25T05:32:43.050Z,49.21
2019-03-25T05:35:13.551Z,48.85
2019-03-25T05:37:43.726Z,48.21
2019-03-25T05:40:13.112Z,48.37
2019-03-25T05:42:43.418Z,49.41
2019-03-25T05:45:13.934Z,48.58
2019-03-25T05:47:44.060Z,48.45
2019-03-25T05:50:14.560Z,48.11
2019-03-25T05:52:44.955Z,48.77
2019-03-25T05:55:15.077Z,48.48
2019-03-25T05:57:45.719Z,46.15
2019-03-25T06:00:16.406Z,42.87
2019-03-25T06:02:46.935Z,41.19
2019-03-25T06:05:17.834Z,39.51
2019-03-25T06:07:48.725Z,37.90
2019-03-25T06:10:20.637Z,35.85
2019-03-25T06:12:49.900Z,34.63
2019-03-25T06:15:22.000Z,32.48
2019-03-25T06:17:52.830Z,33.43
2019-03-25T06:20:23.458Z,33.56
2019-03-25T06:22:57.495Z,33.49
2019-03-25T06:25:29.487Z,32.96
2019-03-25T06:28:00.105Z,31.91
2019-03-25T06:30:33.577Z,32.08
2019-03-25T06:33:12.461Z,29.84
2019-03-25T06:35:37.142Z,29.84
2019-03-25T06:38:07.907Z,29.05
2019-03-25T06:40:39.484Z,28.56
2019-03-25T06:43:10.096Z,27.79
2019-03-25T06:45:40.596Z,27.54
2019-03-25T06:48:11.098Z,26.91
2019-03-25T06:50:41.975Z,26.91
2019-03-25T06:53:12.724Z,26.24
2019-03-25T06:55:43.478Z,25.97
2019-03-25T06:58:14.028Z,25.67
2019-03-25T07:00:46.011Z,25.67
2019-03-25T07:03:17.362Z,27.16
2019-03-25T07:05:48.168Z,26.54
2019-03-25T07:08:18.994Z,27.25
2019-03-25T07:10:49.984Z,27.08
2019-03-25T07:13:21.006Z,26.27
2019-03-25T07:15:52.295Z,25.36
2019-03-25T07:18:23.304Z,24.07
2019-03-25T07:20:53.970Z,25.70
2019-03-25T07:23:24.435Z,25.01
2019-03-25T07:25:55.608Z,25.39
2019-03-25T07:28:26.140Z,24.23
2019-03-25T07:30:56.957Z,25.39
2019-03-25T07:33:27.971Z,27.10
2019-03-25T07:35:58.990Z,27.30
2019-03-25T07:38:29.460Z,29.03
2019-03-25T07:41:00.115Z,30.85
2019-03-25T07:43:30.886Z,31.53
2019-03-25T07:46:01.868Z,32.04
2019-03-25T07:48:32.631Z,32.52
2019-03-25T07:51:03.033Z,30.76
2019-03-25T07:53:33.995Z,30.76
2019-03-25T07:56:04.791Z,30.34
2019-03-25T07:58:34.998Z,30.26
2019-03-25T08:01:05.030Z,29.96
2019-03-25T08:03:35.951Z,29.58
2019-03-25T08:06:06.864Z,30.23
2019-03-25T08:08:37.416Z,29.65
2019-03-25T08:11:07.963Z,30.13
2019-03-25T08:13:38.690Z,30.66
2019-03-25T08:16:09.150Z,31.29
2019-03-25T08:18:39.549Z,30.56
2019-03-25T08:21:09.842Z,26.96
2019-03-25T08:23:39.937Z,24.70
2019-03-25T08:26:09.983Z,26.10
2019-03-25T08:28:40.028Z,29.26
2019-03-25T08:31:10.547Z,29.72
2019-03-25T08:33:40.922Z,30.59
2019-03-25T08:36:11.106Z,30.59
2019-03-25T08:38:53.939Z,30.02
2019-03-25T08:41:24.968Z,30.48
2019-03-25T08:43:56.020Z,29.79
2019-03-25T08:46:26.923Z,30.88
2019-03-25T08:48:57.233Z,30.88
2019-03-25T08:51:28.761Z,30.92
2019-03-25T08:53:57.894Z,30.09
2019-03-25T08:56:28.490Z,30.75
2019-03-25T08:58:58.939Z,31.39
2019-03-25T09:01:29.735Z,31.39
2019-03-25T09:03:58.995Z,30.91
2019-03-25T09:07:19.733Z,31.97
2019-03-25T09:09:48.992Z,34.37
2019-03-25T09:12:19.523Z,33.95
2019-03-25T09:14:49.838Z,33.91
2019-03-25T09:17:19.882Z,32.83
2019-03-25T09:19:50.300Z,32.06
2019-03-25T09:22:20.915Z,33.26
2019-03-25T09:24:51.441Z,33.25
2019-03-25T09:27:21.967Z,33.44
2019-03-25T09:29:53.568Z,32.63
2019-03-25T09:32:23.702Z,32.62
2019-03-25T09:34:53.615Z,32.69
2019-03-25T09:37:22.983Z,33.01
2019-03-25T09:39:53.690Z,32.31
2019-03-25T09:42:24.295Z,32.16
2019-03-25T09:44:58.332Z,30.88
2019-03-25T09:47:29.121Z,29.72
2019-03-25T09:50:00.969Z,29.67
2019-03-25T09:52:38.422Z,29.57
2019-03-25T09:55:07.300Z,30.27
2019-03-25T09:57:38.320Z,31.24
2019-03-25T10:00:11.139Z,32.02
2019-03-25T10:02:42.417Z,32.82
2019-03-25T10:05:12.534Z,33.27
2019-03-25T10:07:43.462Z,36.32
2019-03-25T10:10:15.098Z,36.32
2019-03-25T10:12:46.000Z,36.67
2019-03-25T10:15:17.438Z,36.98
2019-03-25T10:17:48.115Z,37.84
2019-03-25T10:20:19.962Z,37.84
2019-03-25T10:22:51.148Z,39.49
2019-03-25T10:25:22.136Z,39.49
2019-03-25T10:27:53.298Z,38.25
2019-03-25T10:30:24.355Z,38.76
2019-03-25T10:32:55.307Z,37.66
2019-03-25T10:35:25.100Z,35.60
2019-03-25T10:37:56.026Z,35.60
2019-03-25T10:40:52.770Z,35.09
2019-03-25T10:43:24.743Z,35.31
2019-03-25T10:45:55.597Z,33.87
2019-03-25T10:48:36.546Z,32.31
2019-03-25T10:51:07.132Z,30.79
2019-03-25T10:53:38.153Z,30.79
2019-03-25T10:56:08.994Z,30.29
2019-03-25T10:58:39.534Z,29.74
2019-03-25T11:01:12.432Z,27.10
2019-03-25T11:03:43.107Z,25.36
2019-03-25T11:06:14.019Z,24.18
2019-03-25T11:08:44.925Z,24.34
2019-03-25T11:11:15.306Z,21.25
2019-03-25T11:13:45.914Z,19.09
2019-03-25T11:16:16.047Z,20.75
2019-03-25T11:18:46.885Z,23.26
2019-03-25T11:21:17.680Z,21.87
2019-03-25T11:23:46.915Z,22.48
2019-03-25T11:26:17.703Z,22.48
2019-03-25T11:28:48.999Z,23.78
2019-03-25T11:31:19.329Z,25.19
2019-03-25T11:33:50.292Z,22.72
2019-03-25T11:36:20.960Z,23.22
2019-03-25T11:38:51.555Z,23.20
2019-03-25T11:41:22.143Z,29.11
2019-03-25T11:43:52.600Z,29.11
2019-03-25T11:46:23.962Z,43.54
2019-03-25T11:48:55.770Z,46.99
2019-03-25T11:51:24.969Z,50.60
2019-03-25T11:53:55.835Z,50.52
2019-03-25T11:56:27.609Z,47.12
2019-03-25T11:58:56.931Z,39.01
2019-03-25T12:01:27.744Z,33.89
2019-03-25T12:03:56.996Z,33.51
2019-03-25T12:06:28.281Z,42.23
2019-03-25T12:08:58.960Z,40.11
2019-03-25T12:11:29.922Z,37.03
2019-03-25T12:14:00.735Z,31.89
2019-03-25T12:16:31.932Z,33.83
2019-03-25T12:19:02.657Z,34.28
2019-03-25T12:21:33.606Z,30.40
2019-03-25T12:24:03.516Z,30.40
2019-03-25T12:26:34.106Z,28.07
2019-03-25T12:29:29.934Z,27.22
2019-03-25T12:31:58.850Z,30.25
2019-03-25T12:34:29.204Z,26.86
2019-03-25T12:37:00.060Z,26.30
2019-03-25T12:39:30.953Z,29.98
2019-03-25T12:42:02.109Z,33.91
2019-03-25T12:44:32.940Z,36.33
2019-03-25T12:47:03.999Z,33.47
2019-03-25T12:49:36.321Z,28.06
2019-03-25T12:52:07.490Z,25.22
2019-03-25T12:54:38.002Z,25.29
2019-03-25T12:57:09.145Z,22.94
2019-03-25T12:59:41.501Z,24.01
2019-03-25T13:02:12.797Z,25.77
2019-03-25T13:04:43.814Z,27.74
2019-03-25T13:07:15.061Z,28.30
2019-03-25T13:09:46.430Z,30.92
2019-03-25T13:12:17.129Z,46.21
2019-03-25T13:14:48.778Z,46.21
2019-03-25T13:17:19.653Z,52.34
2019-03-25T13:19:50.972Z,52.23
2019-03-25T13:22:24.677Z,50.08
2019-03-25T13:24:56.313Z,38.95
2019-03-25T13:27:27.294Z,38.95
2019-03-25T13:29:58.495Z,35.61
2019-03-25T13:32:29.462Z,33.33
2019-03-25T13:35:00.396Z,31.86
2019-03-25T13:37:31.298Z,31.86
2019-03-25T13:40:02.510Z,30.15
2019-03-25T13:45:17.157Z,28.84
2019-03-25T13:47:48.139Z,28.20
2019-03-25T13:50:20.189Z,26.80
2019-03-25T13:52:51.410Z,26.97
2019-03-25T13:55:22.378Z,25.63
2019-03-25T13:57:53.313Z,27.58
2019-03-25T14:00:42.316Z,25.86
2019-03-25T14:03:13.951Z,24.55
2019-03-25T14:05:44.479Z,25.22
2019-03-25T14:08:17.334Z,28.32
2019-03-25T14:10:47.926Z,28.32
2019-03-25T14:13:18.473Z,28.27
2019-03-25T14:15:48.938Z,29.29
2019-03-25T14:18:19.112Z,32.59
2019-03-25T14:20:49.571Z,37.75
2019-03-25T14:23:19.945Z,39.53
2019-03-25T14:25:50.426Z,39.53
2019-03-25T14:28:21.134Z,45.46
2019-03-25T14:30:51.591Z,53.09
2019-03-25T14:33:21.111Z,56.78
2019-03-25T14:35:51.937Z,60.78
2019-03-25T14:38:23.329Z,63.92
2019-03-25T14:40:55.472Z,62.38
2019-03-25T14:43:26.084Z,62.32
2019-03-25T14:45:56.917Z,63.57
2019-03-25T14:48:27.539Z,63.01
2019-03-25T14:50:56.934Z,59.50
2019-03-25T14:53:27.522Z,59.50
2019-03-25T14:55:58.062Z,59.42
2019-03-25T14:58:29.113Z,59.98
2019-03-25T15:01:00.088Z,58.06
2019-03-25T15:03:32.936Z,58.09
2019-03-25T15:06:03.283Z,55.19
2019-03-25T15:08:34.140Z,55.93
2019-03-25T15:11:04.760Z,54.88
2019-03-25T15:13:36.228Z,53.31
2019-03-25T15:16:06.597Z,51.72
2019-03-25T15:18:36.378Z,50.66
2019-03-25T15:21:07.295Z,49.98
2019-03-25T15:23:37.838Z,49.73
2019-03-25T15:26:09.302Z,47.71
2019-03-25T15:28:40.288Z,47.25
2019-03-25T15:31:11.301Z,47.83
2019-03-25T15:33:42.216Z,48.19
2019-03-25T15:36:12.764Z,48.02
2019-03-25T15:38:42.036Z,45.83
2019-03-25T15:41:13.316Z,47.03
2019-03-25T15:43:43.890Z,48.16
2019-03-25T15:46:14.458Z,47.77
2019-03-25T15:48:44.973Z,45.05
2019-03-25T15:51:15.096Z,44.50
2019-03-25T15:53:45.926Z,44.58
2019-03-25T15:56:16.426Z,44.27
2019-03-25T15:58:47.526Z,43.04
2019-03-25T16:01:17.938Z,44.67
2019-03-25T16:03:48.656Z,44.67
2019-03-25T16:06:22.293Z,43.84
2019-03-25T16:08:52.859Z,43.84
2019-03-25T16:11:24.101Z,43.52
2019-03-25T16:14:01.116Z,42.40
2019-03-25T16:16:34.812Z,42.65
2019-03-25T16:19:05.298Z,43.67
2019-03-25T16:21:36.124Z,41.59
2019-03-25T16:24:07.510Z,40.41
2019-03-25T17:34:12.977Z,57.69
2019-03-25T17:36:43.581Z,58.18
2019-03-25T17:39:14.054Z,59.83
2019-03-25T17:41:44.763Z,59.83
2019-03-25T17:44:16.050Z,58.91
2019-03-25T17:46:47.527Z,59.32
2019-03-25T17:49:17.479Z,55.81
2019-03-25T17:51:48.344Z,55.81
2019-03-25T17:54:18.946Z,57.02
2019-03-25T17:56:49.487Z,58.13
2019-03-25T17:59:19.936Z,58.34
2019-03-25T18:01:50.633Z,59.06
2019-03-25T18:04:20.953Z,59.70
2019-03-25T18:06:51.228Z,61.21
2019-03-25T18:09:21.948Z,62.43
2019-03-25T18:11:52.123Z,61.72
2019-03-25T18:14:22.764Z,62.01
2019-03-25T18:16:51.983Z,61.89
2019-03-25T18:19:22.563Z,61.96
2019-03-25T18:21:52.919Z,63.91
2019-03-25T18:24:23.297Z,64.63
2019-03-25T18:26:54.020Z,63.72
2019-03-25T18:29:24.740Z,63.47
2019-03-25T18:31:53.879Z,63.91
2019-03-25T18:34:24.667Z,62.55
2019-03-25T18:36:54.982Z,63.66
2019-03-25T18:39:25.117Z,63.66
2019-03-25T18:41:57.877Z,64.21
2019-03-25T18:44:28.123Z,63.15
2019-03-25T18:46:58.607Z,63.17
2019-03-25T18:49:29.137Z,65.20
2019-03-25T18:51:59.977Z,65.20
2019-03-25T18:54:31.473Z,65.79
2019-03-25T18:57:01.938Z,67.87
2019-03-25T18:59:33.154Z,67.87
2019-03-25T19:02:03.945Z,67.88
2019-03-25T19:04:34.311Z,66.50
2019-03-25T19:07:05.023Z,66.45
2019-03-25T19:09:36.046Z,67.03
2019-03-25T19:12:06.615Z,67.32
2019-03-25T19:14:37.572Z,66.47
2019-03-25T19:17:08.624Z,65.07
2019-03-25T19:19:39.037Z,65.32
2019-03-25T19:22:12.556Z,65.32
2019-03-25T19:24:43.453Z,64.79
2019-03-25T19:27:14.304Z,64.69
2019-03-25T19:29:45.081Z,64.69
2019-03-25T19:32:16.287Z,65.11
2019-03-25T19:34:48.060Z,66.91
2019-03-25T19:37:19.331Z,65.26
2019-03-25T19:39:50.733Z,64.44
2019-03-25T19:42:22.339Z,64.04
2019-03-25T19:44:53.347Z,62.89
2019-03-25T19:47:25.375Z,62.24
2019-03-25T19:49:57.305Z,61.51
2019-03-25T19:52:28.735Z,65.06
2019-03-25T19:55:00.460Z,63.60
2019-03-25T19:57:32.345Z,63.34
2019-03-25T20:00:04.499Z,64.97
2019-03-25T20:02:36.148Z,63.80
2019-03-25T20:05:08.337Z,63.80
2019-03-25T20:07:40.514Z,63.61
2019-03-25T20:10:33.269Z,63.61
2019-03-25T20:13:05.754Z,60.77
2019-03-25T20:15:45.860Z,60.13
2019-03-25T20:18:11.505Z,59.30
2019-03-25T20:20:42.699Z,59.38
2019-03-25T20:23:14.506Z,59.38
2019-03-25T20:25:44.966Z,59.04
2019-03-25T20:28:16.808Z,59.04
2019-03-25T20:30:48.501Z,60.65
2019-03-25T20:33:21.389Z,62.51
2019-03-25T20:35:52.150Z,64.08
2019-03-25T20:38:23.598Z,64.08
2019-03-25T20:40:53.400Z,64.70
2019-03-25T20:43:24.866Z,63.58
2019-03-25T20:45:56.323Z,63.58
2019-03-25T20:48:27.748Z,64.83
2019-03-25T20:50:58.644Z,64.83
2019-03-25T20:53:28.453Z,64.77
2019-03-25T20:55:59.583Z,65.94
2019-03-25T20:58:29.878Z,66.67
2019-03-25T21:01:01.131Z,64.84
2019-03-25T21:03:32.411Z,67.63
2019-03-25T21:06:03.587Z,66.45
2019-03-25T21:08:34.154Z,66.45
2019-03-25T21:11:05.459Z,67.06
2019-03-25T21:13:36.523Z,66.89
2019-03-25T21:16:07.470Z,65.89
2019-03-25T21:18:38.393Z,66.95
2019-03-25T21:21:09.325Z,66.95
2019-03-25T21:23:41.315Z,65.95
2019-03-25T21:26:11.973Z,66.34
2019-03-25T21:28:44.342Z,65.19
2019-03-25T21:31:15.970Z,63.88
2019-03-25T21:33:47.110Z,63.88
2019-03-25T21:36:18.118Z,65.68
2019-03-25T21:38:49.353Z,64.56
2019-03-25T21:41:20.836Z,64.63
2019-03-25T21:43:52.374Z,65.14
2019-03-25T21:46:23.043Z,66.14
2019-03-25T21:48:56.148Z,65.62
2019-03-25T21:51:27.053Z,65.66
2019-03-25T21:53:58.188Z,66.53
2019-03-25T21:56:28.964Z,64.70
2019-03-25T21:59:00.568Z,64.76
2019-03-25T22:01:30.795Z,65.39
2019-03-25T22:04:01.638Z,64.81
2019-03-25T22:06:31.267Z,63.94
2019-03-25T22:09:02.766Z,63.50
2019-03-25T22:11:34.152Z,65.22
2019-03-25T22:14:05.312Z,65.49
2019-03-25T22:16:36.145Z,64.72
2019-03-25T22:19:07.044Z,64.60
2019-03-25T22:21:37.775Z,64.29
2019-03-25T22:24:08.624Z,65.54
2019-03-25T22:26:39.499Z,65.24
2019-03-25T22:29:16.475Z,64.32
2019-03-25T22:31:47.308Z,63.98
2019-03-25T22:34:18.006Z,63.98
2019-03-25T22:36:49.139Z,64.55
2019-03-25T22:39:20.324Z,64.38
2019-03-25T22:41:51.382Z,64.70
2019-03-25T22:44:21.994Z,64.86
2019-03-25T22:46:53.133Z,65.26
2019-03-25T22:49:24.066Z,63.82
2019-03-25T22:51:55.135Z,64.67
2019-03-25T22:54:26.080Z,64.94
2019-03-25T22:56:57.051Z,65.08
2019-03-25T22:59:28.109Z,66.10
2019-03-25T23:01:59.027Z,64.29
2019-03-25T23:04:30.002Z,64.17
2019-03-25T23:07:01.106Z,64.16
2019-03-25T23:09:32.301Z,64.02
2019-03-25T23:12:05.467Z,64.29
2019-03-25T23:14:35.863Z,66.07
2019-03-25T23:17:07.325Z,64.63
2019-03-25T23:19:39.323Z,65.24
2019-03-25T23:22:10.128Z,65.35
2019-03-25T23:24:41.039Z,64.36
2019-03-25T23:27:12.419Z,65.08
2019-03-25T23:29:43.737Z,63.98
2019-03-25T23:32:13.486Z,64.05
2019-03-25T23:34:44.293Z,63.30
2019-03-25T23:37:15.302Z,63.30
2019-03-25T23:39:45.968Z,63.06
2019-03-25T23:42:18.302Z,63.15
2019-03-25T23:44:49.119Z,63.55
2019-03-25T23:47:20.413Z,64.12
2019-03-25T23:49:51.968Z,63.54
2019-03-25T23:55:16.494Z,63.35
2019-03-25T23:57:47.113Z,63.35
